Time;durP1;ratioP1;P1;durP2;ratioP2;P2;SDS_P1;SDS_P2;PMS_P1;PMS_P2;Temp;Humidity;BMP_temperature;BMP_pressure;BME280_temperature;BME280_humidity;BME280_pressure;Samples;Min_cycle;Max_cycle;Signal;HPM_P1;HPM_P2
2023/09/30 00:00:18;;;;;;;4.87;2.53;;;;;;;17.55;57.48;100082.16;4457437;32;34057;-80
2023/09/30 00:02:47;;;;;;;4.95;2.62;;;;;;;17.67;57.01;100082.56;4457588;32;34372;-80
2023/09/30 00:05:19;;;;;;;7.10;2.50;;;;;;;17.76;57.31;100078.75;4463176;32;33841;-82
2023/09/30 00:07:48;;;;;;;4.78;2.30;;;;;;;17.65;57.80;100075.66;4462154;32;33630;-81
2023/09/30 00:10:17;;;;;;;7.20;2.30;;;;;;;17.49;58.08;100075.31;4457653;32;33553;-82
2023/09/30 00:12:47;;;;;;;4.40;2.12;;;;;;;17.43;58.28;100076.41;4457434;32;33074;-80
2023/09/30 00:15:16;;;;;;;4.43;2.33;;;;;;;17.42;58.21;100079.97;4459326;32;32960;-80
2023/09/30 00:17:45;;;;;;;4.47;2.40;;;;;;;17.31;58.67;100074.22;4463977;32;33727;-81
2023/09/30 00:20:15;;;;;;;9.45;2.20;;;;;;;17.35;58.49;100072.34;4460310;32;33808;-80
2023/09/30 00:22:44;;;;;;;4.43;2.30;;;;;;;17.19;58.98;100072.03;4459543;32;33383;-81
2023/09/30 00:25:13;;;;;;;4.18;2.08;;;;;;;17.22;58.94;100067.50;4459418;32;33688;-81
2023/09/30 00:27:42;;;;;;;6.68;3.10;;;;;;;17.33;58.75;100067.16;4464278;32;33142;-80
2023/09/30 00:30:13;;;;;;;4.07;2.17;;;;;;;17.38;58.65;100067.00;4456385;32;33493;-82
2023/09/30 00:32:41;;;;;;;3.70;2.12;;;;;;;17.36;58.56;100072.28;4457841;32;32389;-80
2023/09/30 00:35:11;;;;;;;3.65;1.90;;;;;;;17.30;58.70;100067.28;4456466;32;33618;-81
2023/09/30 00:37:40;;;;;;;5.07;2.30;;;;;;;17.21;59.00;100060.56;4458140;32;33712;-80
2023/09/30 00:40:11;;;;;;;4.43;2.00;;;;;;;17.34;58.85;100061.00;4463829;32;33825;-81
2023/09/30 00:42:41;;;;;;;6.30;2.05;;;;;;;17.37;58.51;100058.28;4459358;32;33155;-81
2023/09/30 00:45:11;;;;;;;4.43;2.17;;;;;;;17.21;59.03;100055.31;4460335;32;34513;-80
2023/09/30 00:47:41;;;;;;;4.45;2.30;;;;;;;17.15;59.33;100050.28;4458781;32;33695;-81
2023/09/30 00:50:12;;;;;;;;;;;;;;;17.21;59.04;100051.84;4461292;32;33882;-81
2023/09/30 00:52:41;;;;;;;4.05;2.03;;;;;;;17.21;59.12;100057.09;4457888;32;33327;-79
2023/09/30 00:55:10;;;;;;;5.65;2.10;;;;;;;17.19;59.43;100049.28;4456588;32;34406;-80
2023/09/30 00:57:40;;;;;;;3.70;2.23;;;;;;;17.28;59.08;100048.13;4458510;32;32843;-81
2023/09/30 01:00:11;;;;;;;5.65;2.10;;;;;;;17.20;59.41;100043.16;4456405;32;33820;-81
2023/09/30 01:02:44;;;;;;;5.87;2.05;;;;;;;17.00;60.42;100050.81;4463126;32;33788;-79
2023/09/30 01:05:13;;;;;;;4.57;2.03;;;;;;;17.10;59.87;100051.38;4457885;32;33519;-80
2023/09/30 01:07:42;;;;;;;3.58;2.08;;;;;;;17.17;59.67;100050.25;4457681;32;33710;-82
2023/09/30 01:10:11;;;;;;;4.03;2.28;;;;;;;17.18;59.86;100042.34;4456166;32;34145;-80
2023/09/30 01:12:40;;;;;;;5.43;2.72;;;;;;;17.16;60.02;100048.53;4462585;32;34263;-80
2023/09/30 01:15:10;;;;;;;5.05;2.60;;;;;;;17.22;59.78;100048.31;4454794;32;33903;-80
2023/09/30 01:17:39;;;;;;;5.68;2.17;;;;;;;17.18;59.84;100046.69;4456872;32;33755;-81
2023/09/30 01:20:16;;;;;;;4.03;2.10;;;;;;;17.19;59.71;100043.19;4456505;32;33461;-80
2023/09/30 01:22:48;;;;;;;4.37;2.00;;;;;;;17.28;59.55;100050.75;4456370;32;33964;-81
2023/09/30 01:25:17;;;;;;;4.57;2.20;;;;;;;17.11;60.45;100051.31;4461055;32;34538;-82
2023/09/30 01:27:46;;;;;;;3.33;2.00;;;;;;;17.28;59.75;100056.84;4458449;32;34338;-81
2023/09/30 01:30:16;;;;;;;5.10;2.50;;;;;;;17.13;60.11;100056.50;4455806;32;32920;-80
2023/09/30 01:32:45;;;;;;;5.00;2.30;;;;;;;17.13;60.19;100057.37;4457784;32;33156;-80
2023/09/30 01:35:14;;;;;;;4.10;2.15;;;;;;;17.11;60.35;100051.31;4462200;32;35065;-81
2023/09/30 01:37:43;;;;;;;4.07;2.45;;;;;;;17.00;60.81;100056.06;4458036;32;33008;-80
2023/09/30 01:40:14;;;;;;;4.65;2.30;;;;;;;17.12;60.68;100041.69;4456471;32;33594;-81
2023/09/30 01:42:43;;;;;;;4.10;2.10;;;;;;;17.01;60.72;100042.91;4459207;32;34916;-82
2023/09/30 01:45:15;;;;;;;3.60;2.00;;;;;;;17.10;60.24;100044.34;4458794;32;34444;-80
2023/09/30 01:47:44;;;;;;;4.12;2.55;;;;;;;16.96;60.94;100049.19;4465398;32;34555;-79
2023/09/30 01:50:13;;;;;;;3.62;1.90;;;;;;;16.89;61.36;100042.44;4460670;32;33347;-80
2023/09/30 01:52:42;;;;;;;4.10;2.42;;;;;;;16.92;61.13;100050.22;4461106;32;33245;-80
2023/09/30 01:55:13;;;;;;;4.70;2.42;;;;;;;17.00;61.11;100035.94;4460514;32;33645;-80
2023/09/30 01:57:46;;;;;;;;;;;;;;;17.04;60.94;100034.09;4466229;32;33669;-81
2023/09/30 02:00:17;;;;;;;8.48;2.45;;;;;;;16.95;61.19;100042.25;4460713;32;34896;-82
2023/09/30 02:02:46;;;;;;;5.80;2.15;;;;;;;16.92;61.24;100043.22;4460929;32;33521;-81
2023/09/30 02:05:15;;;;;;;4.05;2.12;;;;;;;16.96;61.25;100036.97;4458054;32;34227;-80
2023/09/30 02:07:43;;;;;;;3.97;1.80;;;;;;;17.01;61.14;100036.78;4458318;32;33872;-80
2023/09/30 02:10:14;;;;;;;4.53;2.53;;;;;;;17.13;60.72;100040.75;4461006;32;35157;-82
2023/09/30 02:12:42;;;;;;;3.62;2.15;;;;;;;17.30;59.85;100038.44;4459827;32;34053;-79
2023/09/30 02:15:13;;;;;;;3.70;2.20;;;;;;;17.21;60.09;100034.34;4457659;32;33057;-81
2023/09/30 02:17:45;;;;;;;3.40;2.12;;;;;;;17.19;60.00;100037.94;4451183;32;34458;-80
2023/09/30 02:20:19;;;;;;;3.45;1.80;;;;;;;17.18;60.22;100028.34;4465166;32;33959;-80
2023/09/30 02:22:48;;;;;;;4.43;2.25;;;;;;;17.09;60.46;100042.66;4458274;32;34942;-81
2023/09/30 02:25:19;;;;;;;6.97;2.25;;;;;;;17.13;60.42;100038.13;4458503;32;32898;-79
2023/09/30 02:27:50;;;;;;;4.25;2.22;;;;;;;16.96;60.89;100038.72;4458823;32;33734;-80
2023/09/30 02:30:19;;;;;;;5.37;2.47;;;;;;;16.92;60.87;100032.75;4458982;32;34603;-81
2023/09/30 02:32:48;;;;;;;4.82;2.37;;;;;;;16.93;61.12;100033.59;4463714;32;34054;-81
2023/09/30 02:35:17;;;;;;;6.28;2.72;;;;;;;16.87;61.20;100031.19;4455839;32;32347;-80
2023/09/30 02:37:46;;;;;;;3.60;2.10;;;;;;;16.68;61.86;100034.38;4456937;32;33683;-81
2023/09/30 02:40:17;;;;;;;4.00;2.05;;;;;;;16.55;62.29;100031.31;4458376;32;34541;-80
2023/09/30 02:42:48;;;;;;;4.00;2.47;;;;;;;16.71;61.97;100029.03;4464412;32;33741;-80
2023/09/30 02:45:18;;;;;;;3.85;2.15;;;;;;;16.73;61.92;100029.00;4460360;32;34306;-80
2023/09/30 02:47:51;;;;;;;6.10;2.10;;;;;;;16.89;61.55;100026.72;4459774;32;34788;-82
2023/09/30 02:50:21;;;;;;;3.87;2.03;;;;;;;16.87;61.31;100028.56;4459583;32;34351;-80
2023/09/30 02:52:50;;;;;;;4.37;2.62;;;;;;;16.87;61.35;100033.81;4458120;32;33986;-80
2023/09/30 02:55:19;;;;;;;5.18;2.45;;;;;;;16.63;62.05;100033.69;4464028;32;34639;-81
2023/09/30 02:57:49;;;;;;;2.90;1.60;;;;;;;16.68;62.03;100033.53;4460267;32;33480;-81
2023/09/30 03:00:23;;;;;;;4.50;2.00;;;;;;;16.84;61.27;100033.00;4459303;32;34281;-81
2023/09/30 03:02:54;;;;;;;4.62;2.83;;;;;;;16.74;61.52;100038.56;4456662;32;33290;-80
2023/09/30 03:05:24;;;;;;;5.07;2.55;;;;;;;16.89;61.33;100031.97;4463111;32;33431;-81
2023/09/30 03:07:53;;;;;;;4.70;2.20;;;;;;;16.55;62.43;100033.94;4463473;32;33522;-81
2023/09/30 03:10:23;;;;;;;4.22;1.77;;;;;;;16.59;62.14;100038.13;4457239;32;34202;-81
2023/09/30 03:12:54;;;;;;;4.80;2.45;;;;;;;16.75;61.72;100037.66;4450814;32;32545;-81
2023/09/30 03:15:23;;;;;;;4.57;2.40;;;;;;;16.58;62.32;100031.19;4455712;32;34107;-81
2023/09/30 03:17:53;;;;;;;2.92;2.03;;;;;;;16.57;62.28;100037.31;4459622;32;33589;-80
2023/09/30 03:20:24;;;;;;;4.80;2.12;;;;;;;16.62;62.00;100032.81;4448664;32;34321;-81
2023/09/30 03:22:53;;;;;;;4.55;2.08;;;;;;;16.63;61.85;100038.91;4457457;32;32471;-80
2023/09/30 03:25:23;;;;;;;6.93;2.35;;;;;;;16.83;61.12;100043.53;4461014;32;34644;-80
2023/09/30 03:27:51;;;;;;;7.68;2.12;;;;;;;16.80;61.20;100044.47;4463469;32;33744;-82
2023/09/30 03:30:22;;;;;;;5.05;2.72;;;;;;;16.74;61.56;100046.41;4461215;32;33795;-80
2023/09/30 03:32:51;;;;;;;4.07;2.03;;;;;;;16.72;61.50;100041.25;4457943;32;32509;-81
2023/09/30 03:35:21;;;;;;;6.80;3.15;;;;;;;16.51;62.23;100042.78;4457400;32;33465;-81
2023/09/30 03:37:54;;;;;;;4.20;2.62;;;;;;;16.51;62.44;100037.53;4456525;32;33646;-82
2023/09/30 03:40:27;;;;;;;2.97;2.00;;;;;;;16.39;63.00;100035.31;4463987;32;33712;-81
2023/09/30 03:42:58;;;;;;;5.55;3.12;;;;;;;16.45;62.46;100037.72;4457741;32;33900;-80
2023/09/30 03:45:28;;;;;;;3.78;2.17;;;;;;;16.44;62.66;100041.25;4458098;32;33554;-81
2023/09/30 03:47:57;;;;;;;4.53;2.00;;;;;;;16.63;62.06;100042.38;4458874;32;34782;-79
2023/09/30 03:50:29;;;;;;;4.95;2.70;;;;;;;16.67;62.21;100042.28;4462135;32;34686;-81
2023/09/30 03:53:02;;;;;;;4.20;2.37;;;;;;;16.69;62.10;100043.94;4466075;32;32367;-81
2023/09/30 03:55:31;;;;;;;4.25;2.37;;;;;;;16.82;61.43;100047.91;4461205;32;34058;-82
2023/09/30 03:58:00;;;;;;;7.15;2.70;;;;;;;16.76;61.76;100040.22;4459687;32;33575;-81
2023/09/30 04:00:30;;;;;;;3.85;2.35;;;;;;;16.70;61.62;100039.56;4460941;32;33835;-82
2023/09/30 04:03:00;;;;;;;4.70;2.30;;;;;;;16.69;61.65;100046.56;4466884;32;33716;-80
2023/09/30 04:05:31;;;;;;;5.35;2.10;;;;;;;16.75;61.40;100048.13;4462361;32;33899;-80
2023/09/30 04:08:00;;;;;;;4.85;2.67;;;;;;;16.75;61.44;100049.00;4462636;32;33539;-81
2023/09/30 04:10:30;;;;;;;4.28;2.28;;;;;;;16.56;62.18;100040.00;4462256;32;33785;-81
2023/09/30 04:12:59;;;;;;;4.10;1.80;;;;;;;16.43;62.66;100044.78;4464489;32;33154;-81
2023/09/30 04:15:30;;;;;;;7.70;2.55;;;;;;;16.60;61.98;100042.50;4452271;32;33590;-82
2023/09/30 04:18:00;;;;;;;;;;;;;;;16.59;61.86;100045.16;4446712;32;33610;-81
2023/09/30 04:20:29;;;;;;;4.35;2.45;;;;;;;16.64;61.59;100038.84;4453531;32;33540;-81
2023/09/30 04:22:58;;;;;;;5.45;2.53;;;;;;;16.61;61.71;100046.81;4463349;32;34013;-80
2023/09/30 04:25:27;;;;;;;3.75;1.87;;;;;;;16.54;62.01;100039.22;4465980;32;35142;-81
2023/09/30 04:28:00;;;;;;;6.72;2.50;;;;;;;16.51;62.18;100042.78;4459998;32;34443;-82
2023/09/30 04:30:32;;;;;;;3.03;1.62;;;;;;;16.61;61.96;100045.97;4459386;32;33190;-82
2023/09/30 04:33:05;;;;;;;4.85;2.40;;;;;;;16.50;62.30;100045.44;4460891;32;32972;-82
2023/09/30 04:35:35;;;;;;;3.90;2.23;;;;;;;16.69;61.78;100037.84;4458907;32;33038;-82
2023/09/30 04:38:04;;;;;;;6.57;2.42;;;;;;;16.72;61.82;100046.47;4467792;32;33528;-80
2023/09/30 04:40:33;;;;;;;3.47;2.08;;;;;;;16.58;62.34;100054.78;4459876;32;33443;-81
2023/09/30 04:43:02;;;;;;;4.68;2.15;;;;;;;16.77;61.82;100055.03;4460979;32;34370;-81
2023/09/30 04:45:32;;;;;;;3.95;2.08;;;;;;;16.77;61.60;100054.19;4459063;32;33842;-82
2023/09/30 04:48:02;;;;;;;3.20;1.90;;;;;;;16.81;61.35;100058.44;4466507;32;34319;-81
2023/09/30 04:50:31;;;;;;;3.67;1.75;;;;;;;16.85;61.46;100053.03;4459254;32;34241;-81
2023/09/30 04:53:00;;;;;;;5.03;3.37;;;;;;;16.84;61.25;100059.22;4460823;32;34039;-80
2023/09/30 04:55:28;;;;;;;5.07;2.58;;;;;;;16.69;62.07;100051.78;4457325;32;34628;-82
2023/09/30 04:57:58;;;;;;;5.00;2.15;;;;;;;16.61;62.09;100059.91;4462498;32;33528;-81
2023/09/30 05:00:27;;;;;;;4.75;2.20;;;;;;;16.75;61.66;100063.84;4464751;32;34762;-82
2023/09/30 05:02:59;;;;;;;4.40;2.37;;;;;;;16.77;61.83;100060.28;4460817;32;32608;-80
2023/09/30 05:05:28;;;;;;;;;;;;;;;16.78;61.72;100062.00;4461050;32;33429;-81
2023/09/30 05:07:57;;;;;;;4.25;1.87;;;;;;;16.75;61.89;100066.47;4461786;32;34985;-81
2023/09/30 05:10:27;;;;;;;5.18;2.28;;;;;;;16.75;61.83;100063.84;4466665;32;34367;-81
2023/09/30 05:12:57;;;;;;;4.53;2.35;;;;;;;16.92;61.35;100069.44;4459626;32;33838;-82
2023/09/30 05:15:26;;;;;;;3.62;2.15;;;;;;;16.90;61.74;100076.47;4458967;32;33378;-80
2023/09/30 05:17:55;;;;;;;4.32;2.33;;;;;;;17.05;60.98;100080.34;4460353;32;34571;-80
2023/09/30 05:20:25;;;;;;;5.28;2.40;;;;;;;16.99;60.96;100073.56;4465590;32;33445;-82
2023/09/30 05:22:54;;;;;;;3.73;1.80;;;;;;;17.16;60.37;100072.13;4463737;32;33372;-81
2023/09/30 05:25:26;;;;;;;5.12;2.55;;;;;;;17.18;60.51;100070.28;4458798;32;33845;-82
2023/09/30 05:27:56;;;;;;;4.68;2.28;;;;;;;17.01;60.99;100070.87;4449905;32;34443;-82
2023/09/30 05:30:25;;;;;;;4.97;2.62;;;;;;;17.22;59.74;100078.00;4451540;32;35313;-82
2023/09/30 05:32:54;;;;;;;3.75;1.90;;;;;;;17.37;58.94;100078.38;4458824;32;33509;-80
2023/09/30 05:35:24;;;;;;;4.50;2.20;;;;;;;17.22;59.81;100071.91;4459821;32;34749;-82
2023/09/30 05:37:53;;;;;;;4.20;2.15;;;;;;;17.42;59.64;100077.34;4455526;32;33846;-80
2023/09/30 05:40:26;;;;;;;4.43;2.30;;;;;;;17.49;59.42;100081.47;4459711;32;33534;-80
2023/09/30 05:42:57;;;;;;;4.07;2.20;;;;;;;17.63;59.04;100082.72;4462922;32;33895;-80
2023/09/30 05:45:27;;;;;;;2.45;1.80;;;;;;;17.61;59.36;100089.78;4464123;32;33657;-81
2023/09/30 05:47:59;;;;;;;3.33;1.92;;;;;;;17.45;59.15;100073.75;4456870;32;34805;-83
2023/09/30 05:50:29;;;;;;;4.00;2.30;;;;;;;17.59;58.91;100081.09;4461297;32;33761;-82
2023/09/30 05:52:58;;;;;;;3.60;2.23;;;;;;;17.60;59.05;100085.47;4463152;32;32728;-82
2023/09/30 05:55:27;;;;;;;3.37;1.90;;;;;;;17.94;58.01;100092.13;4480673;32;34507;-83
2023/09/30 05:57:56;;;;;;;3.08;2.00;;;;;;;18.08;57.53;100087.22;4460099;32;33616;-84
2023/09/30 06:00:30;;;;;;;4.80;2.47;;;;;;;17.99;57.89;100087.56;4461005;32;34308;-82
2023/09/30 06:02:59;;;;;;;4.25;2.17;;;;;;;18.22;57.77;100087.56;4460887;32;33972;-82
2023/09/30 06:05:30;;;;;;;3.33;2.08;;;;;;;18.34;57.50;100091.50;4459863;32;34359;-82
2023/09/30 06:08:05;;;;;;;4.00;1.92;;;;;;;18.27;58.30;100100.50;4461842;32;33574;-83
2023/09/30 06:10:33;;;;;;;5.70;2.92;;;;;;;18.45;58.02;100101.56;4458324;32;33740;-83
2023/09/30 06:13:03;;;;;;;4.25;2.20;;;;;;;18.42;58.63;100099.06;4458670;32;33427;-82
2023/09/30 06:15:31;;;;;;;4.07;1.67;;;;;;;18.65;57.85;100096.38;4458418;32;33399;-82
2023/09/30 06:18:00;;;;;;;6.32;2.60;;;;;;;18.74;58.08;100098.63;4465428;32;34659;-83
2023/09/30 06:20:31;;;;;;;4.30;2.15;;;;;;;19.02;57.41;100100.19;4458732;32;34612;-83
2023/09/30 06:23:01;;;;;;;3.83;2.03;;;;;;;19.25;56.16;100096.56;4456859;32;33914;-82
2023/09/30 06:25:32;;;;;;;4.17;2.80;;;;;;;19.35;55.61;100097.03;4456624;32;33301;-82
2023/09/30 06:28:03;;;;;;;2.92;2.08;;;;;;;19.49;55.63;100097.28;4458523;32;33825;-82
2023/09/30 06:30:33;;;;;;;5.43;2.42;;;;;;;19.72;55.08;100100.72;4464092;32;33591;-83
2023/09/30 06:33:04;;;;;;;3.28;2.12;;;;;;;19.67;55.31;100097.41;4460051;32;33382;-82
2023/09/30 06:35:38;;;;;;;2.80;1.92;;;;;;;19.66;55.79;100103.59;4458230;32;35236;-83
2023/09/30 06:38:07;;;;;;;3.15;1.62;;;;;;;20.03;55.08;100098.44;4456362;32;34817;-82
2023/09/30 06:40:38;;;;;;;3.90;2.08;;;;;;;20.15;54.44;100101.41;4464252;32;33531;-83
2023/09/30 06:43:09;;;;;;;3.20;1.83;;;;;;;20.22;54.38;100101.06;4457188;32;33295;-82
2023/09/30 06:45:41;;;;;;;3.08;1.73;;;;;;;20.32;54.04;100101.50;4456929;32;34385;-82
2023/09/30 06:48:12;;;;;;;4.15;2.25;;;;;;;20.24;54.61;100109.72;4458144;32;33763;-84
2023/09/30 06:50:45;;;;;;;;;;;;;;;20.37;55.33;100117.94;4458890;32;33582;-83
2023/09/30 06:53:15;;;;;;;2.58;1.50;;;;;;;20.56;54.53;100115.31;4465278;32;33231;-83
2023/09/30 06:55:44;;;;;;;4.47;1.97;;;;;;;20.57;54.87;100118.81;4455382;32;33167;-83
2023/09/30 06:58:13;;;;;;;4.15;2.12;;;;;;;20.65;54.09;100114.00;4458272;32;32348;-81
2023/09/30 07:00:42;;;;;;;3.95;1.92;;;;;;;20.60;53.85;100116.03;4457773;32;33430;-83
2023/09/30 07:03:15;;;;;;;9.15;2.45;;;;;;;20.57;54.50;100122.28;4463969;32;32470;-82
2023/09/30 07:05:44;;;;;;;4.75;2.25;;;;;;;20.75;54.31;100133.72;4456677;32;34126;-82
2023/09/30 07:08:14;;;;;;;5.32;2.28;;;;;;;20.82;54.24;100127.22;4450868;32;34327;-82
2023/09/30 07:10:43;;;;;;;5.55;2.95;;;;;;;20.69;54.46;100126.13;4450994;32;34180;-81
2023/09/30 07:13:12;;;;;;;3.50;1.90;;;;;;;20.79;53.35;100122.09;4456051;32;34134;-83
2023/09/30 07:15:41;;;;;;;3.62;1.98;;;;;;;20.70;54.05;100127.81;4460292;32;34048;-83
2023/09/30 07:18:11;;;;;;;4.05;2.25;;;;;;;20.81;53.72;100130.81;4459014;32;33709;-82
2023/09/30 07:20:40;;;;;;;4.75;1.92;;;;;;;21.01;53.35;100126.34;4456283;32;34996;-82
2023/09/30 07:23:09;;;;;;;4.05;1.70;;;;;;;21.00;53.95;100129.91;4457736;32;33025;-83
2023/09/30 07:25:49;;;;;;;3.60;1.80;;;;;;;21.07;54.15;100133.97;4461165;32;33357;-82
2023/09/30 07:28:17;;;;;;;3.62;1.83;;;;;;;21.15;54.42;100133.56;4460067;32;35972;-82
2023/09/30 07:30:46;;;;;;;4.85;2.37;;;;;;;21.34;52.66;100137.00;4459051;32;32603;-82
2023/09/30 07:33:15;;;;;;;4.68;2.20;;;;;;;21.28;52.13;100139.94;4458461;32;33275;-82
2023/09/30 07:35:44;;;;;;;7.75;2.83;;;;;;;21.15;53.00;100141.50;4458072;32;33407;-83
2023/09/30 07:38:13;;;;;;;5.70;2.55;;;;;;;21.22;53.33;100145.53;4465589;32;33610;-83
2023/09/30 07:40:42;;;;;;;3.92;1.92;;;;;;;21.20;53.87;100142.97;4456873;32;33954;-82
2023/09/30 07:43:13;;;;;;;3.92;2.17;;;;;;;21.25;53.99;100145.37;4457519;32;34165;-82
2023/09/30 07:45:43;;;;;;;3.00;2.05;;;;;;;21.37;53.43;100144.75;4458890;32;33866;-82
2023/09/30 07:48:13;;;;;;;3.25;1.92;;;;;;;21.45;52.65;100137.31;4465468;32;35472;-82
2023/09/30 07:50:43;;;;;;;3.72;2.30;;;;;;;21.64;51.91;100145.16;4460176;32;32789;-82
2023/09/30 07:53:13;;;;;;;4.03;1.87;;;;;;;21.77;51.87;100141.87;4470051;32;33725;-82
2023/09/30 07:55:41;;;;;;;1.75;1.20;;;;;;;21.76;51.25;100141.03;4476236;32;33916;-82
2023/09/30 07:58:12;;;;;;;3.37;1.48;;;;;;;21.99;50.29;100137.19;4470854;32;33610;-83
2023/09/30 08:00:40;;;;;;;2.80;1.60;;;;;;;22.06;49.84;100135.03;4465746;32;33692;-83
2023/09/30 08:03:13;;;;;;;6.22;1.77;;;;;;;22.17;49.35;100145.87;4460526;32;33350;-82
2023/09/30 08:05:42;;;;;;;3.72;2.08;;;;;;;22.39;49.63;100153.53;4459798;32;33755;-82
2023/09/30 08:08:11;;;;;;;3.42;1.80;;;;;;;22.40;49.62;100152.63;4460179;32;33861;-82
2023/09/30 08:10:40;;;;;;;3.28;1.92;;;;;;;22.00;50.42;100149.44;4465090;32;34514;-82
2023/09/30 08:13:09;;;;;;;4.03;2.00;;;;;;;22.17;49.52;100152.03;4460191;32;34052;-82
2023/09/30 08:15:40;;;;;;;7.53;1.98;;;;;;;22.34;50.18;100155.59;4459338;32;33977;-81
2023/09/30 08:18:09;;;;;;;2.30;1.60;;;;;;;22.37;49.82;100155.41;4459711;32;33684;-82
2023/09/30 08:20:37;;;;;;;8.60;2.42;;;;;;;22.17;50.00;100151.19;4448767;32;33783;-82
2023/09/30 08:23:06;;;;;;;5.20;1.65;;;;;;;22.17;47.87;100151.19;4465376;32;33717;-83
2023/09/30 08:25:35;;;;;;;3.15;1.48;;;;;;;22.22;47.25;100148.31;4457148;32;33720;-81
2023/09/30 08:28:04;;;;;;;3.40;1.70;;;;;;;22.02;47.16;100152.84;4460964;32;33663;-83
2023/09/30 08:30:34;;;;;;;3.70;1.80;;;;;;;21.76;48.13;100156.00;4459893;32;33672;-83
2023/09/30 08:33:05;;;;;;;3.83;2.05;;;;;;;21.72;48.59;100156.19;4454210;32;33758;-82
2023/09/30 08:35:38;;;;;;;2.85;1.62;;;;;;;21.74;48.89;100142.88;4456649;32;33841;-82
2023/09/30 08:38:07;;;;;;;6.35;2.62;;;;;;;21.90;49.04;100149.06;4462160;32;33650;-83
2023/09/30 08:40:36;;;;;;;2.83;1.62;;;;;;;22.03;48.02;100151.91;4453038;32;34141;-83
2023/09/30 08:43:05;;;;;;;3.92;2.20;;;;;;;22.06;48.55;100149.13;4463514;32;34140;-83
2023/09/30 08:45:36;;;;;;;3.97;2.10;;;;;;;22.38;47.26;100143.91;4459151;32;33382;-82
2023/09/30 08:48:07;;;;;;;3.85;1.83;;;;;;;22.38;47.46;100141.28;4459938;32;33144;-83
2023/09/30 08:50:38;;;;;;;4.62;2.10;;;;;;;22.17;48.70;100145.87;4452675;32;33679;-83
2023/09/30 08:53:08;;;;;;;3.22;1.90;;;;;;;22.07;49.03;100142.88;4459853;32;33803;-81
2023/09/30 08:55:39;;;;;;;5.35;2.35;;;;;;;22.05;48.83;100147.41;4463667;32;34485;-83
2023/09/30 08:58:07;;;;;;;9.57;2.55;;;;;;;22.14;49.16;100143.41;4460020;32;34458;-82
2023/09/30 09:00:36;;;;;;;5.55;2.85;;;;;;;22.08;49.74;100141.94;4460845;32;33419;-83
2023/09/30 09:03:08;;;;;;;6.05;2.42;;;;;;;21.89;50.09;100138.56;4458365;32;32957;-83
2023/09/30 09:05:37;;;;;;;3.78;2.00;;;;;;;21.65;50.54;100149.50;4460741;32;34640;-82
2023/09/30 09:08:06;;;;;;;3.25;2.08;;;;;;;21.73;50.45;100136.75;4461735;32;33847;-82
2023/09/30 09:10:35;;;;;;;4.00;2.10;;;;;;;21.65;50.69;100144.22;4459055;32;34725;-80
2023/09/30 09:13:04;;;;;;;4.32;2.22;;;;;;;21.72;50.52;100140.34;4457795;32;33127;-81
2023/09/30 09:15:33;;;;;;;4.25;1.98;;;;;;;21.43;51.68;100146.25;4459920;32;34880;-80
2023/09/30 09:18:02;;;;;;;4.18;2.40;;;;;;;21.57;51.08;100149.03;4464690;32;34011;-80
2023/09/30 09:20:34;;;;;;;3.45;1.87;;;;;;;21.51;51.52;100157.28;4450039;32;33868;-82
2023/09/30 09:23:07;;;;;;;6.47;2.65;;;;;;;21.58;52.10;100156.03;4458093;32;32928;-81
2023/09/30 09:25:43;;;;;;;5.82;2.40;;;;;;;21.88;51.20;100150.94;4461220;32;34189;-80
2023/09/30 09:28:16;;;;;;;4.07;1.95;;;;;;;21.55;51.45;100152.69;4455583;32;34850;-81
2023/09/30 09:30:48;;;;;;;5.53;1.77;;;;;;;21.83;50.98;100144.19;4463130;32;33346;-82
2023/09/30 09:33:16;;;;;;;3.22;1.67;;;;;;;21.78;51.13;100133.88;4453300;32;33282;-81
2023/09/30 09:35:49;;;;;;;4.60;2.50;;;;;;;21.78;52.13;100138.31;4463914;32;34542;-80
2023/09/30 09:38:18;;;;;;;5.28;2.85;;;;;;;21.97;51.52;100133.75;4458467;32;33791;-81
2023/09/30 09:40:47;;;;;;;3.87;2.30;;;;;;;22.05;51.26;100131.53;4465679;32;33644;-82
2023/09/30 09:43:16;;;;;;;4.80;2.40;;;;;;;22.08;51.28;100130.53;4457518;32;33042;-83
2023/09/30 09:45:46;;;;;;;3.30;1.95;;;;;;;22.01;51.47;100121.22;4462589;32;33684;-82
2023/09/30 09:48:15;;;;;;;4.20;2.15;;;;;;;22.20;50.92;100131.66;4461422;32;35309;-82
2023/09/30 09:50:46;;;;;;;8.15;1.80;;;;;;;22.39;51.08;100120.97;4458274;32;34077;-82
2023/09/30 09:53:17;;;;;;;3.65;1.87;;;;;;;22.67;49.56;100120.28;4466960;32;33070;-83
2023/09/30 09:55:47;;;;;;;5.62;2.03;;;;;;;22.73;49.92;100118.13;4459945;32;32563;-83
2023/09/30 09:58:16;;;;;;;3.47;2.00;;;;;;;22.96;47.94;100124.75;4450585;32;33667;-82
2023/09/30 10:00:45;;;;;;;3.15;1.75;;;;;;;22.71;48.33;100121.78;4456585;32;34058;-81
2023/09/30 10:03:14;;;;;;;2.85;1.50;;;;;;;22.62;48.20;100120.53;4466994;32;33206;-82
2023/09/30 10:05:43;;;;;;;3.42;2.05;;;;;;;22.67;48.59;100126.44;4455431;32;33908;-82
2023/09/30 10:08:14;;;;;;;5.72;2.03;;;;;;;22.69;47.48;100127.19;4461217;32;33605;-82
2023/09/30 10:10:45;;;;;;;3.67;1.83;;;;;;;22.41;48.46;100121.75;4455897;32;33879;-82
2023/09/30 10:13:47;;;;;;;3.83;1.83;;;;;;;22.40;48.97;100120.91;4459372;32;33170;-82
2023/09/30 10:16:50;;;;;;;5.28;2.05;;;;;;;22.55;49.49;100114.75;4462514;32;33439;-83
2023/09/30 10:19:22;;;;;;;3.72;2.62;;;;;;;22.78;48.63;100115.22;4463682;32;33995;-82
2023/09/30 10:22:21;;;;;;;2.87;1.60;;;;;;;22.53;49.32;100113.97;4459104;32;34061;-82
2023/09/30 10:24:52;;;;;;;4.20;2.10;;;;;;;22.72;48.88;100107.66;4459153;32;34308;-83
2023/09/30 10:27:37;;;;;;;4.20;2.15;;;;;;;22.43;49.45;100104.84;4458678;32;32415;-82
2023/09/30 10:30:16;;;;;;;5.75;2.03;;;;;;;22.50;49.76;100106.22;4459106;32;33901;-82
2023/09/30 10:33:12;;;;;;;3.72;2.17;;;;;;;22.47;49.94;100105.50;4457332;32;34167;-82
2023/09/30 10:35:48;;;;;;;3.53;2.15;;;;;;;22.71;49.83;100111.22;4458893;32;33003;-83
2023/09/30 10:38:43;;;;;;;4.05;2.12;;;;;;;22.80;49.37;100113.34;4460431;32;34708;-82
2023/09/30 10:41:12;;;;;;;4.05;2.40;;;;;;;22.82;49.34;100105.34;4459618;32;34567;-82
2023/09/30 10:43:42;;;;;;;3.05;2.08;;;;;;;22.71;49.75;100109.44;4459144;32;35180;-81
2023/09/30 10:46:36;;;;;;;3.45;1.87;;;;;;;22.60;49.84;100103.06;4457511;32;32575;-82
2023/09/30 10:49:32;;;;;;;4.90;2.30;;;;;;;22.52;50.87;100101.69;4457758;32;34298;-83
2023/09/30 10:52:01;;;;;;;6.50;2.53;;;;;;;22.65;50.44;100098.34;4457096;32;33625;-82
2023/09/30 10:54:32;;;;;;;6.97;2.65;;;;;;;22.42;51.11;100097.84;4463366;32;34047;-81
2023/09/30 10:57:03;;;;;;;4.78;2.55;;;;;;;22.45;51.18;100095.06;4458252;32;34495;-82
2023/09/30 10:59:35;;;;;;;7.93;2.53;;;;;;;22.34;51.48;100094.78;4458246;32;34553;-82
2023/09/30 11:02:04;;;;;;;4.40;2.20;;;;;;;22.42;51.04;100089.91;4457704;32;33694;-82
2023/09/30 11:04:46;;;;;;;5.10;2.67;;;;;;;21.97;52.48;100091.50;4458081;32;35264;-81
2023/09/30 11:07:23;;;;;;;7.80;2.55;;;;;;;22.22;52.43;100091.03;4463906;32;33964;-82
2023/09/30 11:09:55;;;;;;;4.37;2.22;;;;;;;21.92;53.11;100085.59;4459343;32;34222;-81
2023/09/30 11:12:25;;;;;;;7.60;3.20;;;;;;;21.92;53.49;100088.25;4459347;32;33530;-82
2023/09/30 11:15:04;;;;;;;5.85;2.25;;;;;;;21.70;54.30;100085.91;4459583;32;33856;-81
2023/09/30 11:17:32;;;;;;;3.70;1.80;;;;;;;21.65;54.96;100088.78;4458944;32;33228;-81
2023/09/30 11:20:02;;;;;;;5.28;2.53;;;;;;;21.47;55.12;100087.94;4464666;32;34629;-83
2023/09/30 11:22:30;;;;;;;4.80;2.85;;;;;;;21.67;54.80;100089.56;4459002;32;33844;-81
2023/09/30 11:24:59;;;;;;;4.40;2.37;;;;;;;21.45;55.37;100094.22;4457359;32;33920;-83
2023/09/30 11:27:29;;;;;;;4.12;2.33;;;;;;;21.23;56.17;100097.09;4458789;32;33333;-82
2023/09/30 11:29:59;;;;;;;4.28;2.10;;;;;;;21.29;56.29;100094.16;4464561;32;33618;-82
2023/09/30 11:32:30;;;;;;;4.85;2.30;;;;;;;21.37;56.45;100091.97;4458923;32;33668;-82
2023/09/30 11:34:59;;;;;;;4.55;2.53;;;;;;;21.08;57.08;100104.84;4458632;32;34049;-83
2023/09/30 11:37:33;;;;;;;4.50;2.42;;;;;;;21.39;56.35;100102.44;4458459;32;33164;-82
2023/09/30 11:40:13;;;;;;;6.12;2.70;;;;;;;21.45;56.25;100110.06;4458804;32;34396;-82
2023/09/30 11:42:45;;;;;;;3.90;1.90;;;;;;;21.42;55.62;100116.38;4460272;32;33264;-82